Accueil
METAR-TAF:

METAR-TAF

Aéroports :

Aéroport de Santo-Pekoa

Luganville, Espiritu Santo, Vanuatu

latitude: 15-31S, longitude: 167-13E, altitude: 41 m

Observation

Le bulletin a été fait il y a 1 heure et 30 minutes, à 03:00 UTC
Vent 4 kt de ouest/sud-ouest
Température 28°C
Humidité 89%
Pression 1008 hPa
Visibilité 10 km ou plus
Nuages épars à une hauteur de 2000 ft
Quelques nuages à une hauteur de 2500 ft, Cumulonimbus.
Nuages fragmentés à une hauteur de 11000 ft

METAR: NVSS 230300Z 25004KT 9999 SCT020 FEW025CB BKN110 28/26 Q1008 RMK RESH

Heure: 15:30 (04:30 UTC)

Prévision

Le bulletin a été fait il y a 6 heures et 10 minutes, à 22:20 UTC
Prévision valable du 23 à 00 UTC au 23 à 24 UTC
Vent 3 kt de direction variable
Visibilité: 9000 m
Nuages épars à une hauteur de 2000 ft
Nuages fragmentés à une hauteur de 1800 ft
averses de pluie

TAF: NVSS 222220Z 2300/2324 VRB03KT 9999 SCT020 INTER 2300/2306 9000 SHRA BKN018

Observations et prévisions météorologiques de plus de 4000 aéroports (messages METAR et TAF).

Les stations disponibles sont représentées par des disques jaunes et rouges sur la carte.

Passer la souris dessus pour voir le nom de la station.

Cliquer dessus pour voir les observations et prévisions météorologiques.

Pour changer de carte: cliquez sur les boutons verts avec une croix noire pour zoomer, sur le bouton vert avec un tiret pour effectuer un zoom arrière, ou sur les flèches vertes pour les cartes adjacentes.


METAR-TAF: